Time;durP1;ratioP1;P1;durP2;ratioP2;P2;SDS_P1;SDS_P2;PMS_P1;PMS_P2;Temp;Humidity;BMP_temperature;BMP_pressure;BME280_temperature;BME280_humidity;BME280_pressure;Samples;Min_cycle;Max_cycle;Signal;HPM_P1;HPM_P2
2023/01/28 00:00:52;;;;;;;5.17;2.33;;;1.70;98.00;;;;;;5075146;28;20931;-66
2023/01/28 00:03:19;;;;;;;3.60;2.03;;;1.70;98.00;;;;;;5075089;28;20453;-66
2023/01/28 00:05:46;;;;;;;4.70;2.67;;;1.70;98.00;;;;;;5074924;28;20475;-66
2023/01/28 00:08:13;;;;;;;2.80;2.33;;;1.70;98.00;;;;;;5074109;28;20538;-67
2023/01/28 00:10:41;;;;;;;5.80;3.30;;;1.90;98.00;;;;;;5074905;28;20613;-66
2023/01/28 00:13:10;;;;;;;3.90;2.20;;;1.90;98.00;;;;;;5075098;28;20464;-65
2023/01/28 00:15:37;;;;;;;4.80;2.27;;;1.80;98.00;;;;;;5074572;28;20476;-66
2023/01/28 00:18:06;;;;;;;3.20;2.63;;;1.80;98.00;;;;;;5073771;28;20922;-67
2023/01/28 00:20:34;;;;;;;2.63;2.20;;;1.90;98.00;;;;;;5074500;28;20943;-66
2023/01/28 00:23:01;;;;;;;5.83;3.07;;;2.00;98.00;;;;;;5074736;28;20526;-66
2023/01/28 00:25:28;;;;;;;5.23;2.20;;;2.10;98.00;;;;;;5072906;28;20955;-66
2023/01/28 00:27:56;;;;;;;3.60;2.53;;;2.10;98.00;;;;;;5073946;28;20441;-66
2023/01/28 00:30:23;;;;;;;3.20;2.03;;;2.20;98.00;;;;;;5074274;28;20449;-66
2023/01/28 00:32:50;;;;;;;6.13;2.60;;;2.30;98.00;;;;;;5074369;28;20471;-66
2023/01/28 00:35:19;;;;;;;8.13;3.03;;;2.30;98.00;;;;;;5074403;28;20459;-65
2023/01/28 00:37:47;;;;;;;6.90;3.93;;;2.20;98.00;;;;;;5074215;28;20460;-66
2023/01/28 00:40:14;;;;;;;6.00;3.10;;;2.10;98.00;;;;;;5074220;28;20492;-66
2023/01/28 00:42:41;;;;;;;5.03;2.13;;;2.10;98.00;;;;;;5074378;28;20449;-66
2023/01/28 00:45:09;;;;;;;2.67;2.17;;;2.10;98.00;;;;;;5074228;28;20939;-67
2023/01/28 00:47:36;;;;;;;4.80;2.47;;;2.20;98.00;;;;;;5072965;28;20456;-66
2023/01/28 00:50:04;;;;;;;2.17;1.80;;;2.20;98.00;;;;;;5074367;28;20459;-66
2023/01/28 00:52:33;;;;;;;2.47;1.90;;;2.30;98.00;;;;;;5074265;28;20947;-66
2023/01/28 00:55:00;;;;;;;2.13;1.73;;;2.40;98.00;;;;;;5074005;28;20932;-67
2023/01/28 00:57:28;;;;;;;13.67;2.20;;;2.40;98.00;;;;;;5072839;28;20485;-66
2023/01/28 00:59:55;;;;;;;2.30;1.80;;;2.50;98.00;;;;;;5073241;28;20464;-66
2023/01/28 01:02:23;;;;;;;1.70;1.50;;;2.50;98.00;;;;;;5074068;28;20966;-66
2023/01/28 01:04:58;;;;;;;2.50;1.90;;;2.50;98.00;;;;;;5073890;28;20449;-66
2023/01/28 01:07:33;;;;;;;3.00;2.17;;;2.50;98.00;;;;;;5072987;28;20517;-66
2023/01/28 01:10:02;;;;;;;3.70;2.73;;;2.50;98.00;;;;;;5073843;28;20514;-66
2023/01/28 01:12:30;;;;;;;4.90;2.80;;;2.50;98.00;;;;;;5073621;28;20460;-66
2023/01/28 01:14:57;;;;;;;2.43;1.93;;;2.50;98.00;;;;;;5073664;28;20534;-66
2023/01/28 01:17:25;;;;;;;1.93;1.40;;;2.60;98.00;;;;;;5073922;28;20831;-66
2023/01/28 01:19:52;;;;;;;3.83;2.87;;;2.60;98.00;;;;;;5073361;28;20467;-66
2023/01/28 01:22:19;;;;;;;2.70;2.00;;;2.60;98.00;;;;;;5073559;28;20453;-66
2023/01/28 01:24:48;;;;;;;2.47;2.10;;;2.60;98.00;;;;;;5072858;28;20460;-66
2023/01/28 01:27:16;;;;;;;4.80;2.87;;;2.60;98.00;;;;;;5072806;28;20464;-66
2023/01/28 01:29:43;;;;;;;3.03;2.53;;;2.50;98.00;;;;;;5072548;28;20460;-66
2023/01/28 01:32:11;;;;;;;2.40;1.57;;;2.60;98.00;;;;;;5073252;28;20841;-66
2023/01/28 01:34:38;;;;;;;4.47;2.00;;;2.60;98.00;;;;;;5073192;28;20454;-66
2023/01/28 01:37:07;;;;;;;2.50;1.93;;;2.60;98.00;;;;;;5073031;28;20489;-66
2023/01/28 01:39:34;;;;;;;6.00;3.33;;;2.50;98.00;;;;;;5072996;28;20938;-66
2023/01/28 01:42:02;;;;;;;6.80;3.10;;;2.40;98.00;;;;;;5072991;28;20461;-66
2023/01/28 01:44:56;;;;;;;4.30;3.10;;;2.30;98.00;;;;;;5072939;28;20448;-66
2023/01/28 01:47:30;;;;;;;2.90;1.97;;;2.20;98.00;;;;;;5072930;28;20504;-67
2023/01/28 01:49:59;;;;;;;1.87;1.40;;;2.10;98.00;;;;;;5072945;28;20456;-66
2023/01/28 01:52:32;;;;;;;5.83;1.90;;;2.00;98.00;;;;;;5073002;28;20461;-66
2023/01/28 01:55:04;;;;;;;4.80;2.73;;;2.10;98.00;;;;;;5072849;28;20548;-66
2023/01/28 01:57:34;;;;;;;3.33;2.20;;;2.00;98.00;;;;;;5072794;28;20480;-66
2023/01/28 02:00:05;;;;;;;3.07;2.10;;;1.90;98.00;;;;;;5073000;28;20460;-66
2023/01/28 02:02:38;;;;;;;3.93;2.50;;;1.80;98.00;;;;;;5072954;28;20504;-66
2023/01/28 02:05:06;;;;;;;4.80;2.90;;;1.90;98.00;;;;;;5072903;28;20448;-67
2023/01/28 02:07:34;;;;;;;3.30;2.30;;;2.00;98.00;;;;;;5071694;28;20526;-66
2023/01/28 02:10:01;;;;;;;4.00;2.90;;;2.00;98.00;;;;;;5072666;28;20997;-66
2023/01/28 02:12:34;;;;;;;3.17;2.47;;;2.00;98.00;;;;;;5072863;28;20465;-67
2023/01/28 02:15:06;;;;;;;4.30;2.80;;;2.00;98.00;;;;;;5072408;28;20509;-66
2023/01/28 02:17:34;;;;;;;2.27;1.80;;;2.00;98.00;;;;;;5072074;28;20485;-66
2023/01/28 02:20:03;;;;;;;3.20;2.13;;;2.00;98.00;;;;;;5072079;28;20464;-66
2023/01/28 02:22:49;;;;;;;5.10;2.87;;;2.10;98.00;;;;;;5052307;28;20508;-66
2023/01/28 02:25:54;;;;;;;1.97;1.57;;;2.10;98.00;;;;;;5050820;28;20454;-66
2023/01/28 02:28:32;;;;;;;6.27;2.93;;;2.00;98.00;;;;;;5052390;28;20468;-66
2023/01/28 02:31:09;;;;;;;2.17;1.67;;;2.00;98.00;;;;;;5050530;28;20548;-66
2023/01/28 02:33:41;;;;;;;4.43;2.50;;;2.00;98.00;;;;;;5052304;28;20480;-66
2023/01/28 02:36:17;;;;;;;4.90;1.70;;;1.90;98.00;;;;;;5051937;28;20917;-66
2023/01/28 02:38:49;;;;;;;3.73;2.00;;;1.90;98.00;;;;;;5052096;28;20515;-66
2023/01/28 02:41:23;;;;;;;3.20;2.00;;;1.90;98.00;;;;;;5052049;28;20442;-65
2023/01/28 02:43:55;;;;;;;1.80;1.70;;;1.90;98.00;;;;;;5052060;28;20595;-66
2023/01/28 02:49:21;;;;;;;3.00;1.87;;;1.80;98.00;;;;;;5052061;28;20447;-66
2023/01/28 02:53:39;;;;;;;3.93;2.13;;;1.80;98.00;;;;;;5052151;28;20525;-66
2023/01/28 02:55:15;;;;;;;2.80;2.40;;;1.70;98.00;;;;;;5026847;28;21042;-66
2023/01/28 02:57:50;;;;;;;2.83;2.40;;;1.80;98.00;;;;;;5050824;28;20863;-65
2023/01/28 03:00:23;;;;;;;5.20;2.90;;;1.80;98.00;;;;;;5052003;28;20465;-66
2023/01/28 03:02:55;;;;;;;3.00;2.20;;;1.90;98.00;;;;;;5052017;28;20458;-66
2023/01/28 03:05:28;;;;;;;2.93;1.87;;;1.90;98.00;;;;;;5052278;28;20461;-66
2023/01/28 03:07:57;;;;;;;4.33;2.70;;;2.10;98.00;;;;;;5052032;28;20984;-66
2023/01/28 03:10:27;;;;;;;1.73;1.70;;;2.20;98.00;;;;;;5052023;28;20792;-66
2023/01/28 03:38:19;;;;;;;1.70;1.60;;;2.20;98.00;;;;;;5055441;28;20485;-66
2023/01/28 03:40:51;;;;;;;3.37;2.40;;;2.00;98.00;;;;;;5055249;28;20453;-66
2023/01/28 03:43:19;;;;;;;3.57;1.93;;;2.00;98.00;;;;;;5055295;28;20454;-66
2023/01/28 03:45:50;;;;;;;6.00;2.90;;;2.00;98.00;;;;;;5055178;28;20465;-66
2023/01/28 03:48:18;;;;;;;2.93;1.73;;;2.00;98.00;;;;;;5055420;28;20543;-66
2023/01/28 03:50:46;;;;;;;4.20;2.20;;;2.00;98.00;;;;;;5053739;28;20450;-67
2023/01/28 03:53:14;;;;;;;2.40;2.27;;;2.10;98.00;;;;;;5054977;28;20457;-66
2023/01/28 03:55:41;;;;;;;2.60;1.93;;;2.30;98.00;;;;;;5055169;28;20464;-66
2023/01/28 03:58:08;;;;;;;2.60;2.17;;;2.50;98.00;;;;;;5053992;28;20489;-66
2023/01/28 04:00:40;;;;;;;4.03;2.53;;;2.50;98.00;;;;;;5055209;28;20541;-66
2023/01/28 04:03:15;;;;;;;5.03;2.73;;;2.40;98.00;;;;;;5054725;28;20450;-66
2023/01/28 04:05:45;;;;;;;2.97;1.50;;;2.30;98.00;;;;;;5054630;28;20464;-65
2023/01/28 04:08:13;;;;;;;2.60;1.80;;;2.20;98.00;;;;;;5055423;28;20558;-66
2023/01/28 04:10:42;;;;;;;3.53;2.50;;;2.10;98.00;;;;;;5055135;28;20450;-65
2023/01/28 04:13:09;;;;;;;5.17;1.90;;;2.00;98.00;;;;;;5054991;28;20541;-66
2023/01/28 04:15:37;;;;;;;3.07;2.20;;;1.90;98.00;;;;;;5054936;28;20446;-66
2023/01/28 04:18:04;;;;;;;2.80;2.30;;;1.90;98.00;;;;;;5054459;28;20481;-66
2023/01/28 04:20:33;;;;;;;2.60;1.80;;;1.90;98.00;;;;;;5053445;28;20449;-66
2023/01/28 04:23:09;;;;;;;1.70;1.43;;;1.90;98.00;;;;;;5054651;28;20560;-66
2023/01/28 04:25:37;;;;;;;3.63;2.37;;;1.80;98.00;;;;;;5054523;28;20465;-66
2023/01/28 04:28:05;;;;;;;3.50;2.47;;;1.90;98.00;;;;;;5053286;28;20461;-67
2023/01/28 04:30:32;;;;;;;3.17;1.73;;;2.10;98.00;;;;;;5054228;28;20454;-66
2023/01/28 04:32:59;;;;;;;5.60;3.00;;;2.10;98.00;;;;;;5053049;28;20468;-66
2023/01/28 04:35:26;;;;;;;5.90;3.13;;;2.10;98.00;;;;;;5053289;28;20454;-66
2023/01/28 04:37:53;;;;;;;2.73;2.23;;;2.10;98.00;;;;;;5054195;28;20481;-66
2023/01/28 04:40:21;;;;;;;3.03;1.70;;;2.10;98.00;;;;;;5054255;28;20895;-66
2023/01/28 04:42:54;;;;;;;3.33;2.30;;;2.00;98.00;;;;;;5054184;28;20469;-66
2023/01/28 04:45:21;;;;;;;2.90;2.23;;;2.10;98.00;;;;;;5053981;28;20461;-66
2023/01/28 04:47:49;;;;;;;2.00;1.90;;;2.10;98.00;;;;;;5054035;28;20462;-66
2023/01/28 04:50:16;;;;;;;2.20;2.00;;;2.10;98.00;;;;;;5054221;28;20465;-66
2023/01/28 04:52:43;;;;;;;16.63;3.87;;;2.20;98.00;;;;;;5054195;28;20450;-66
2023/01/28 04:55:12;;;;;;;4.30;2.17;;;2.20;98.00;;;;;;5054031;28;20462;-67
2023/01/28 04:57:40;;;;;;;3.30;2.07;;;2.30;98.00;;;;;;5052715;28;20526;-66
2023/01/28 05:00:09;;;;;;;2.33;1.77;;;2.20;98.00;;;;;;5054313;28;20508;-66
2023/01/28 05:02:36;;;;;;;5.23;2.67;;;2.20;98.00;;;;;;5052854;28;20460;-66
2023/01/28 05:05:04;;;;;;;3.63;2.23;;;2.10;98.00;;;;;;5053985;28;20465;-66
2023/01/28 05:07:32;;;;;;;4.80;2.53;;;2.00;98.00;;;;;;5054187;28;20545;-66
2023/01/28 05:09:59;;;;;;;5.80;3.10;;;1.90;98.00;;;;;;5052683;28;20457;-66
2023/01/28 05:12:26;;;;;;;4.70;2.00;;;1.90;98.00;;;;;;5054136;28;20461;-66
2023/01/28 05:14:54;;;;;;;3.10;2.30;;;1.90;98.00;;;;;;5053633;28;20449;-67
2023/01/28 05:17:21;;;;;;;2.50;2.40;;;1.80;98.00;;;;;;5053928;28;20482;-66
2023/01/28 05:19:48;;;;;;;4.80;2.70;;;1.70;98.00;;;;;;5053065;28;20974;-66
2023/01/28 05:22:16;;;;;;;2.20;1.70;;;1.80;98.00;;;;;;5053632;28;20454;-66
2023/01/28 05:24:44;;;;;;;2.77;2.27;;;1.70;98.00;;;;;;5052037;28;20939;-66
2023/01/28 05:27:11;;;;;;;4.13;2.20;;;1.90;98.00;;;;;;5052237;28;20454;-66
2023/01/28 05:29:39;;;;;;;6.07;2.73;;;2.00;98.00;;;;;;5053259;28;20458;-66
2023/01/28 05:32:07;;;;;;;3.23;2.30;;;2.00;98.00;;;;;;5053303;28;20827;-66
2023/01/28 05:34:34;;;;;;;3.97;2.10;;;2.00;98.00;;;;;;5053336;28;20805;-66
2023/01/28 05:37:01;;;;;;;3.57;2.20;;;1.90;98.00;;;;;;5053080;28;20500;-66
2023/01/28 05:39:30;;;;;;;3.07;2.00;;;1.80;98.00;;;;;;5053108;28;20963;-66
2023/01/28 05:41:57;;;;;;;3.70;2.47;;;1.80;98.00;;;;;;5053062;28;20457;-66
2023/01/28 05:44:24;;;;;;;2.03;1.47;;;1.80;98.00;;;;;;5053257;28;20623;-66
2023/01/28 05:46:51;;;;;;;3.50;2.33;;;1.80;98.00;;;;;;5052443;28;20473;-66
2023/01/28 05:49:21;;;;;;;3.77;2.20;;;1.80;98.00;;;;;;5052463;28;20454;-66
2023/01/28 05:51:48;;;;;;;2.70;2.00;;;1.80;98.00;;;;;;5053089;28;20453;-66
2023/01/28 05:54:15;;;;;;;4.10;1.90;;;1.80;98.00;;;;;;5052839;28;20545;-66
2023/01/28 05:56:43;;;;;;;3.63;2.60;;;1.80;98.00;;;;;;5051774;28;20854;-66
2023/01/28 05:59:12;;;;;;;3.33;2.00;;;1.80;98.00;;;;;;5053092;28;20461;-66
2023/01/28 06:01:39;;;;;;;2.60;1.67;;;1.80;98.00;;;;;;5053096;28;20497;-66
2023/01/28 06:04:06;;;;;;;2.80;2.27;;;1.70;98.00;;;;;;5052696;28;20454;-66
2023/01/28 06:06:34;;;;;;;2.83;1.80;;;1.70;98.00;;;;;;5051772;28;21114;-65
2023/01/28 06:09:01;;;;;;;7.20;2.23;;;1.70;98.00;;;;;;5052653;28;20469;-66
2023/01/28 06:11:28;;;;;;;1.77;1.73;;;1.70;98.00;;;;;;5052131;28;20473;-66
2023/01/28 06:13:56;;;;;;;2.83;2.10;;;1.80;98.00;;;;;;5051850;28;20948;-67
2023/01/28 06:16:22;;;;;;;3.53;2.10;;;1.70;98.00;;;;;;5052535;28;20465;-67
2023/01/28 06:18:49;;;;;;;3.10;1.80;;;1.70;98.00;;;;;;5052256;28;20485;-66
2023/01/28 06:21:16;;;;;;;2.23;2.07;;;1.70;98.00;;;;;;5052493;28;20473;-66
2023/01/28 06:23:45;;;;;;;2.60;2.00;;;1.70;98.00;;;;;;5052377;28;20457;-66
2023/01/28 06:26:12;;;;;;;3.10;2.37;;;1.70;98.00;;;;;;5052176;28;20588;-66
2023/01/28 06:28:39;;;;;;;3.57;2.33;;;1.80;98.00;;;;;;5052473;28;20453;-66
2023/01/28 06:31:08;;;;;;;2.53;2.40;;;1.90;98.00;;;;;;5052015;28;20474;-66
2023/01/28 06:33:35;;;;;;;4.20;1.90;;;1.90;98.00;;;;;;5052322;28;20461;-66
2023/01/28 06:36:03;;;;;;;8.07;2.57;;;1.90;98.00;;;;;;5052031;28;20937;-66
2023/01/28 06:38:30;;;;;;;1.57;1.53;;;2.00;98.00;;;;;;5052008;28;20573;-66
2023/01/28 06:41:02;;;;;;;2.40;1.70;;;2.00;98.00;;;;;;5051996;28;20469;-66
2023/01/28 06:43:29;;;;;;;1.87;1.67;;;2.00;98.00;;;;;;5052269;28;20807;-66
2023/01/28 06:45:57;;;;;;;3.43;2.43;;;2.00;98.00;;;;;;5050655;28;20472;-66
2023/01/28 06:48:24;;;;;;;2.70;1.67;;;2.00;98.00;;;;;;5052077;28;20459;-66
2023/01/28 06:50:52;;;;;;;2.40;1.93;;;2.00;98.00;;;;;;5051804;28;20453;-66
2023/01/28 06:53:19;;;;;;;2.20;1.70;;;1.90;98.00;;;;;;5051926;28;20461;-66
2023/01/28 06:55:46;;;;;;;1.70;1.60;;;1.90;98.00;;;;;;5051954;28;20539;-67
2023/01/28 06:58:15;;;;;;;2.10;2.00;;;1.90;98.00;;;;;;5051224;28;20490;-66
2023/01/28 07:00:44;;;;;;;2.13;1.87;;;1.90;98.00;;;;;;5052038;28;21024;-63
2023/01/28 07:03:11;;;;;;;2.20;1.50;;;1.90;98.00;;;;;;5051989;28;20952;-62
2023/01/28 07:05:39;;;;;;;4.67;2.10;;;2.00;98.00;;;;;;5050837;28;20457;-62
2023/01/28 07:08:06;;;;;;;2.97;1.90;;;2.00;98.00;;;;;;5052073;28;20454;-62
2023/01/28 07:10:35;;;;;;;2.50;1.90;;;2.10;98.00;;;;;;5052229;28;20458;-62
2023/01/28 07:13:03;;;;;;;2.60;1.60;;;1.90;98.00;;;;;;5050829;28;20463;-63
2023/01/28 07:15:39;;;;;;;2.43;1.97;;;1.90;98.00;;;;;;5051795;28;20494;-62
2023/01/28 07:18:06;;;;;;;2.90;1.90;;;1.90;98.00;;;;;;5034096;28;20850;-62
2023/01/28 07:20:33;;;;;;;2.33;1.90;;;1.90;98.00;;;;;;5050290;28;20465;-62
2023/01/28 07:23:00;;;;;;;2.17;2.00;;;2.00;98.00;;;;;;5050562;28;20450;-62
2023/01/28 07:25:27;;;;;;;3.77;2.30;;;2.00;98.00;;;;;;5051451;28;20465;-63
2023/01/28 07:27:54;;;;;;;3.70;2.17;;;2.00;98.00;;;;;;5051652;28;20454;-62
2023/01/28 07:30:22;;;;;;;2.10;1.83;;;2.00;98.00;;;;;;5050168;28;20457;-62
2023/01/28 07:32:57;;;;;;;4.03;2.07;;;2.10;98.00;;;;;;5051249;28;20520;-62
2023/01/28 07:35:25;;;;;;;3.63;1.93;;;2.10;98.00;;;;;;5051140;28;20470;-62
2023/01/28 07:37:55;;;;;;;3.33;2.23;;;2.10;98.00;;;;;;5051347;28;20487;-62
2023/01/28 07:40:22;;;;;;;2.10;1.97;;;2.20;98.00;;;;;;5051450;28;20859;-62
2023/01/28 07:42:49;;;;;;;2.43;2.03;;;2.30;98.00;;;;;;5051189;28;20462;-62
2023/01/28 07:45:16;;;;;;;2.43;2.10;;;2.20;98.00;;;;;;5051191;28;20520;-62
2023/01/28 07:47:43;;;;;;;3.40;2.50;;;2.20;98.00;;;;;;5050287;28;20459;-63
2023/01/28 07:50:12;;;;;;;4.50;2.30;;;2.30;98.00;;;;;;5051372;28;20487;-62
2023/01/28 07:52:43;;;;;;;2.90;2.23;;;2.30;98.00;;;;;;5051251;28;20478;-62
2023/01/28 07:55:14;;;;;;;3.60;2.77;;;2.30;98.00;;;;;;5051564;28;20855;-62
2023/01/28 07:57:49;;;;;;;2.90;2.37;;;2.30;98.00;;;;;;5051392;28;20484;-62
2023/01/28 08:00:17;;;;;;;3.40;2.33;;;2.30;98.00;;;;;;5051323;28;21025;-63
2023/01/28 08:02:46;;;;;;;5.83;3.20;;;2.40;98.00;;;;;;5051344;28;20504;-62
2023/01/28 08:05:17;;;;;;;3.30;2.27;;;2.40;98.00;;;;;;5051203;28;20458;-62
2023/01/28 08:07:47;;;;;;;6.10;2.40;;;2.50;98.00;;;;;;5051591;28;20870;-62
2023/01/28 08:10:14;;;;;;;2.80;1.63;;;2.50;98.00;;;;;;5054942;28;20848;-62
2023/01/28 08:12:42;;;;;;;5.17;2.70;;;2.50;98.00;;;;;;5054751;28;20461;-62
2023/01/28 08:15:10;;;;;;;6.20;3.30;;;2.50;98.00;;;;;;5053757;28;20463;-62
2023/01/28 08:17:37;;;;;;;2.53;2.13;;;2.40;98.00;;;;;;5054471;28;20451;-62
2023/01/28 08:20:06;;;;;;;5.13;2.27;;;2.50;98.00;;;;;;5053469;28;20846;-63
2023/01/28 08:22:34;;;;;;;2.50;2.33;;;2.50;98.00;;;;;;5054661;28;20923;-62
2023/01/28 08:25:04;;;;;;;2.40;1.97;;;2.50;98.00;;;;;;5054423;28;20458;-62
2023/01/28 08:27:31;;;;;;;4.40;2.70;;;2.50;98.00;;;;;;5054733;28;20830;-62
2023/01/28 08:29:59;;;;;;;5.70;3.10;;;2.60;98.00;;;;;;5053024;28;20458;-62
2023/01/28 08:32:26;;;;;;;3.90;2.30;;;2.60;98.00;;;;;;5054452;28;20533;-62
2023/01/28 08:34:53;;;;;;;2.90;1.93;;;2.60;98.00;;;;;;5054413;28;20873;-63
2023/01/28 08:37:20;;;;;;;3.10;2.03;;;2.60;98.00;;;;;;5054368;28;20461;-62
2023/01/28 08:39:49;;;;;;;5.37;2.77;;;2.60;98.00;;;;;;5052959;28;20898;-62
2023/01/28 08:42:16;;;;;;;2.80;2.13;;;2.60;98.00;;;;;;5054334;28;20456;-63
2023/01/28 08:44:43;;;;;;;4.83;3.17;;;2.60;98.00;;;;;;5054213;28;20942;-62
2023/01/28 08:47:10;;;;;;;3.07;2.83;;;2.70;98.00;;;;;;5054062;28;20468;-62
2023/01/28 08:49:37;;;;;;;2.07;1.73;;;2.70;98.00;;;;;;5052948;28;20477;-62
2023/01/28 08:52:05;;;;;;;4.50;2.50;;;2.80;98.00;;;;;;5054283;28;20466;-62
2023/01/28 08:54:35;;;;;;;4.03;2.40;;;2.90;98.00;;;;;;5053956;28;20460;-63
2023/01/28 08:57:03;;;;;;;3.90;2.20;;;3.10;98.00;;;;;;5052846;28;20455;-62
2023/01/28 08:59:31;;;;;;;4.53;3.37;;;3.00;98.00;;;;;;5059736;28;20479;-62
2023/01/28 09:01:58;;;;;;;4.13;3.07;;;3.00;98.00;;;;;;5063787;28;20508;-62
2023/01/28 09:04:25;;;;;;;3.13;2.50;;;2.90;98.00;;;;;;5051848;28;20553;-62
2023/01/28 09:06:54;;;;;;;7.47;3.10;;;2.90;98.00;;;;;;5051701;28;20461;-62
2023/01/28 09:09:25;;;;;;;6.17;3.30;;;2.90;98.00;;;;;;5053038;28;20452;-62
2023/01/28 09:11:52;;;;;;;4.20;3.07;;;2.90;98.00;;;;;;5053057;28;20450;-62
2023/01/28 09:14:20;;;;;;;4.00;2.73;;;2.90;98.00;;;;;;5052982;28;20462;-62
2023/01/28 09:16:48;;;;;;;6.07;3.03;;;3.10;98.00;;;;;;5052918;28;20455;-63
2023/01/28 09:19:15;;;;;;;3.80;2.57;;;3.30;98.00;;;;;;5051478;28;21024;-62
2023/01/28 09:21:44;;;;;;;5.40;2.23;;;3.40;98.00;;;;;;5052083;28;20459;-63
2023/01/28 09:24:12;;;;;;;6.40;3.47;;;3.50;98.00;;;;;;5049966;28;20458;-62
2023/01/28 09:26:39;;;;;;;5.37;3.60;;;3.50;98.00;;;;;;5051334;28;20520;-62
2023/01/28 09:29:06;;;;;;;4.30;2.20;;;3.40;98.00;;;;;;5052639;28;20519;-62
2023/01/28 09:31:35;;;;;;;2.57;2.07;;;3.40;98.00;;;;;;5050755;28;20664;-62
2023/01/28 09:34:03;;;;;;;3.10;2.50;;;3.40;98.00;;;;;;5052387;28;20446;-62
2023/01/28 09:36:30;;;;;;;6.60;3.33;;;3.30;98.00;;;;;;5051402;28;20455;-62
2023/01/28 09:38:57;;;;;;;6.23;3.20;;;3.30;98.00;;;;;;5052549;28;20896;-62
2023/01/28 09:41:27;;;;;;;4.77;2.70;;;3.40;98.00;;;;;;5051312;28;20465;-62
2023/01/28 09:44:06;;;;;;;5.90;3.33;;;3.50;98.00;;;;;;5052227;28;20458;-62
2023/01/28 09:46:37;;;;;;;5.20;2.80;;;3.60;98.00;;;;;;5053479;28;20466;-62
2023/01/28 09:49:17;;;;;;;3.93;2.70;;;3.60;98.00;;;;;;5052122;28;20452;-62
2023/01/28 09:51:50;;;;;;;4.83;3.47;;;3.60;98.00;;;;;;5052152;28;21015;-62
2023/01/28 09:54:27;;;;;;;6.97;3.03;;;3.80;98.00;;;;;;5052236;28;20456;-62
2023/01/28 09:57:01;;;;;;;4.00;3.07;;;3.80;98.00;;;;;;5051921;28;20818;-62
2023/01/28 09:59:36;;;;;;;3.17;2.67;;;3.80;98.00;;;;;;5052065;28;20489;-62
2023/01/28 10:02:35;;;;;;;4.13;2.40;;;3.60;98.00;;;;;;5052073;28;20449;-62
2023/01/28 10:05:16;;;;;;;5.10;3.07;;;3.50;98.00;;;;;;5052044;28;20460;-63
2023/01/28 10:07:52;;;;;;;4.00;2.57;;;3.50;98.00;;;;;;5051778;28;20465;-62
2023/01/28 10:10:27;;;;;;;4.50;3.40;;;3.40;98.00;;;;;;5052380;28;20453;-62
2023/01/28 10:13:12;;;;;;;4.80;2.77;;;3.40;98.00;;;;;;5052167;28;20952;-63
2023/01/28 10:15:52;;;;;;;3.73;2.33;;;3.40;98.00;;;;;;5052177;28;20446;-63
2023/01/28 10:18:37;;;;;;;8.23;4.00;;;3.40;98.00;;;;;;5052146;28;20611;-62
2023/01/28 10:21:12;;;;;;;6.60;2.80;;;3.40;98.00;;;;;;5051634;28;20468;-62
2023/01/28 10:23:47;;;;;;;4.53;3.03;;;3.60;98.00;;;;;;5051904;28;20461;-62
2023/01/28 10:26:23;;;;;;;4.57;2.83;;;3.60;98.00;;;;;;5051624;28;20553;-62
2023/01/28 10:28:54;;;;;;;5.83;2.70;;;3.50;98.00;;;;;;5051756;28;20467;-62
2023/01/28 10:31:23;;;;;;;8.27;3.20;;;3.50;98.00;;;;;;5051057;28;20554;-62
2023/01/28 10:33:51;;;;;;;2.33;1.80;;;3.50;98.00;;;;;;5051294;28;20494;-63
2023/01/28 10:36:19;;;;;;;5.63;2.67;;;3.50;98.00;;;;;;5051578;28;20464;-62
2023/01/28 10:38:53;;;;;;;5.03;2.50;;;3.50;98.00;;;;;;5051404;28;20484;-62
2023/01/28 10:41:24;;;;;;;6.37;2.67;;;3.40;98.00;;;;;;5051240;28;20857;-63
2023/01/28 10:43:52;;;;;;;7.87;3.20;;;3.50;98.00;;;;;;5051258;28;20495;-62
2023/01/28 10:46:22;;;;;;;5.37;2.97;;;3.50;98.00;;;;;;5051098;28;20462;-62
2023/01/28 10:48:57;;;;;;;6.83;2.90;;;3.50;98.00;;;;;;5051287;28;20454;-62
2023/01/28 10:51:32;;;;;;;4.47;1.90;;;3.50;98.00;;;;;;5051324;28;20466;-62
2023/01/28 10:53:59;;;;;;;2.40;2.17;;;3.50;98.00;;;;;;5051293;28;20643;-62
2023/01/28 10:56:29;;;;;;;5.17;2.33;;;3.50;98.00;;;;;;5051257;28;20846;-62
2023/01/28 10:59:01;;;;;;;2.83;2.57;;;3.50;98.00;;;;;;5050974;28;20491;-61
2023/01/28 11:01:40;;;;;;;5.40;2.60;;;3.70;98.00;;;;;;5051211;28;20834;-61
2023/01/28 11:04:17;;;;;;;6.00;2.50;;;3.60;98.00;;;;;;5051080;28;20453;-61
2023/01/28 11:06:53;;;;;;;5.90;3.20;;;3.60;98.00;;;;;;5051220;28;20467;-62
2023/01/28 11:09:22;;;;;;;5.97;2.40;;;3.40;98.00;;;;;;5051332;28;20450;-62
2023/01/28 11:11:49;;;;;;;3.50;2.30;;;3.50;98.00;;;;;;5051230;28;21298;-62
2023/01/28 11:14:26;;;;;;;3.80;2.47;;;3.60;98.00;;;;;;5051922;28;20456;-62
2023/01/28 11:16:56;;;;;;;4.10;2.60;;;3.60;98.00;;;;;;5052100;28;20520;-62
2023/01/28 11:19:31;;;;;;;3.87;2.33;;;3.50;98.00;;;;;;5051993;28;20505;-62
2023/01/28 11:21:58;;;;;;;4.00;3.27;;;3.50;98.00;;;;;;5050100;28;20858;-62
2023/01/28 11:24:29;;;;;;;2.70;2.17;;;3.40;98.00;;;;;;5051206;28;20450;-63
2023/01/28 11:26:58;;;;;;;5.33;2.53;;;3.50;98.00;;;;;;5050175;28;20546;-62
2023/01/28 11:29:29;;;;;;;8.60;3.97;;;3.40;98.00;;;;;;5050473;28;20460;-62
2023/01/28 11:31:57;;;;;;;4.80;2.67;;;3.50;98.00;;;;;;5050958;28;20464;-62
2023/01/28 11:34:29;;;;;;;5.03;2.10;;;3.50;98.00;;;;;;5050895;28;20504;-62
2023/01/28 11:37:04;;;;;;;6.20;2.90;;;3.50;98.00;;;;;;5050681;28;20970;-62
2023/01/28 11:42:18;;;;;;;3.60;2.77;;;3.50;98.00;;;;;;5050480;28;20465;-62
2023/01/28 11:44:46;;;;;;;4.13;2.90;;;3.50;98.00;;;;;;5053935;28;20450;-62
2023/01/28 11:47:42;;;;;;;4.03;2.40;;;3.50;98.00;;;;;;5054451;28;20466;-62
2023/01/28 11:50:24;;;;;;;5.23;3.07;;;3.50;98.00;;;;;;5053548;28;20948;-62
2023/01/28 11:53:06;;;;;;;9.37;2.90;;;3.40;98.00;;;;;;5054392;28;20829;-62
2023/01/28 11:55:43;;;;;;;13.00;3.60;;;3.30;98.00;;;;;;5054400;28;20481;-62
2023/01/28 11:58:22;;;;;;;4.67;2.30;;;3.30;98.00;;;;;;5054323;28;20459;-62
2023/01/28 12:01:02;;;;;;;5.43;2.60;;;3.40;98.00;;;;;;5054109;28;20905;-62
2023/01/28 12:04:12;;;;;;;3.43;2.00;;;3.60;98.00;;;;;;5054325;28;20490;-62
2023/01/28 12:06:52;;;;;;;3.70;2.30;;;3.50;98.00;;;;;;5033132;28;20465;-62
2023/01/28 12:09:31;;;;;;;8.57;3.77;;;3.40;98.00;;;;;;5054138;28;20453;-62
2023/01/28 12:12:16;;;;;;;8.10;2.80;;;3.60;98.00;;;;;;5053978;28;20516;-62
2023/01/28 12:15:09;;;;;;;5.53;3.03;;;3.60;98.00;;;;;;5054120;28;20462;-62
2023/01/28 12:17:51;;;;;;;3.20;2.13;;;3.60;98.00;;;;;;5027048;28;20458;-62
2023/01/28 12:20:26;;;;;;;3.70;2.43;;;3.80;98.00;;;;;;5054128;28;20489;-62
2023/01/28 12:23:06;;;;;;;4.27;2.47;;;3.70;98.00;;;;;;5053970;28;20459;-62
2023/01/28 12:25:45;;;;;;;3.70;2.37;;;3.60;98.00;;;;;;5053746;28;20458;-62
2023/01/28 12:28:20;;;;;;;4.80;3.30;;;3.60;98.00;;;;;;5053626;28;20486;-62
2023/01/28 12:31:01;;;;;;;4.60;2.90;;;3.70;98.00;;;;;;5053790;28;20486;-62
2023/01/28 12:33:54;;;;;;;4.57;3.07;;;3.80;98.00;;;;;;5053621;28;20512;-62
2023/01/28 12:36:38;;;;;;;4.90;3.10;;;3.90;98.00;;;;;;5050932;28;20960;-62
2023/01/28 12:39:18;;;;;;;3.83;2.53;;;3.80;98.00;;;;;;5053633;28;20486;-62
2023/01/28 12:41:51;;;;;;;3.47;2.73;;;3.90;98.00;;;;;;5053341;28;20461;-62
2023/01/28 12:44:29;;;;;;;3.63;2.50;;;3.90;98.00;;;;;;5053219;28;20466;-62
2023/01/28 12:46:58;;;;;;;5.90;3.53;;;4.00;98.00;;;;;;5053233;28;20467;-62
2023/01/28 12:49:32;;;;;;;4.50;2.60;;;3.90;98.00;;;;;;5053236;28;20467;-63
2023/01/28 12:52:05;;;;;;;5.77;2.80;;;3.80;98.00;;;;;;5053240;28;20462;-62
2023/01/28 12:54:39;;;;;;;2.40;2.20;;;3.70;98.00;;;;;;5052418;28;20956;-62
2023/01/28 12:57:13;;;;;;;4.23;2.70;;;3.70;98.00;;;;;;5053248;28;20462;-62
2023/01/28 12:59:46;;;;;;;4.10;3.10;;;3.60;98.00;;;;;;5053443;28;20481;-62
2023/01/28 13:02:37;;;;;;;4.40;3.07;;;3.50;98.00;;;;;;5053436;28;20461;-62
2023/01/28 13:05:11;;;;;;;4.97;2.63;;;3.40;98.00;;;;;;5053083;28;20450;-62
2023/01/28 13:07:43;;;;;;;6.27;3.07;;;3.40;98.00;;;;;;5053295;28;20459;-62
2023/01/28 13:10:21;;;;;;;6.00;3.20;;;3.40;98.00;;;;;;5053223;28;20489;-62
2023/01/28 13:12:49;;;;;;;6.53;3.33;;;3.50;98.00;;;;;;5053199;28;20509;-62
2023/01/28 13:15:19;;;;;;;3.10;2.40;;;3.60;98.00;;;;;;5053324;28;20516;-62
2023/01/28 13:17:59;;;;;;;5.00;2.73;;;3.60;98.00;;;;;;5053073;28;20514;-62
2023/01/28 13:20:38;;;;;;;4.70;2.70;;;3.60;98.00;;;;;;5053186;28;20487;-62
2023/01/28 13:23:22;;;;;;;2.37;1.87;;;3.70;98.00;;;;;;5052875;28;20455;-62
2023/01/28 13:25:52;;;;;;;3.47;2.13;;;3.90;98.00;;;;;;5052972;28;20466;-62
2023/01/28 13:28:28;;;;;;;4.30;2.17;;;4.00;98.00;;;;;;5052822;28;20462;-62
2023/01/28 13:31:03;;;;;;;3.27;2.50;;;4.10;98.00;;;;;;5055042;28;20451;-62
2023/01/28 13:33:33;;;;;;;2.80;2.13;;;4.10;98.00;;;;;;5063665;28;20460;-62
2023/01/28 13:36:17;;;;;;;4.33;2.70;;;4.10;98.00;;;;;;5061994;28;20865;-62
2023/01/28 13:38:45;;;;;;;3.10;2.30;;;4.00;98.00;;;;;;5069662;28;20776;-62
2023/01/28 13:41:13;;;;;;;3.63;2.73;;;3.90;98.00;;;;;;5072093;28;20568;-62
2023/01/28 13:43:41;;;;;;;8.17;3.53;;;3.80;98.00;;;;;;5072965;28;20464;-62
2023/01/28 13:46:11;;;;;;;3.90;2.60;;;3.80;98.00;;;;;;5071617;28;20480;-62
2023/01/28 13:48:44;;;;;;;4.73;2.50;;;3.70;98.00;;;;;;5071824;28;20515;-62